METAR

Aeronautical MET Report METAR

METAR description (Slovak)

21.03.2019 - 19:30 UTC

METAR LZIB 211930Z 27003KT CAVOK 08/M02 Q1033=
METAR LZKZ 211930Z 36005KT CAVOK 08/M05 Q1032=
METAR LZPP 211930Z 08004KT CAVOK 06/M01 Q1033=
METAR LZSL 211930Z 04002KT CAVOK 05/M00 Q1032=
METAR LZTT 211930Z VRB02KT CAVOK 04/01 Q1032=
METAR LZZI 211930Z 12003KT CAVOK 05/02 Q1033=

21.03.2019 - 19:00 UTC

METAR LZIB 211900Z 23005KT CAVOK 09/M02 Q1033 NOSIG=
METAR LZKZ 211900Z VRB02KT CAVOK 08/M04 Q1032=
METAR LZPP 211900Z VRB01KT CAVOK 07/M02 Q1033=
METAR LZSL 211900Z 00000KT CAVOK 06/01 Q1032=
METAR LZTT 211900Z 16003KT CAVOK 03/01 Q1031=
METAR LZZI 211900Z 13003KT CAVOK 06/02 Q1033=

21.03.2019 - 19:00 UTC

METAR LZMC 211900Z 00000KT CAVOK 05/M02 Q1034=
METAR LZPW 211900Z 06006KT CAVOK 09/02 Q1032=

 

 

skok na menu ↑


skok na začiatok stránky ↑